Time;durP1;ratioP1;P1;durP2;ratioP2;P2;SDS_P1;SDS_P2;PMS_P1;PMS_P2;Temp;Humidity;BMP_temperature;BMP_pressure;BME280_temperature;BME280_humidity;BME280_pressure;Samples;Min_cycle;Max_cycle;Signal;HPM_P1;HPM_P2
2022/07/22 00:01:11;;;;;;;8.27;7.43;;;20.70;99.90;;;20.88;77.42;101140.84;5039117;28;20506;-73
2022/07/22 00:03:40;;;;;;;9.50;7.73;;;20.70;99.90;;;21.02;76.81;101142.88;5030144;28;20515;-73
2022/07/22 00:06:09;;;;;;;12.10;8.23;;;20.80;99.90;;;21.12;76.13;101144.84;5029454;28;20446;-71
2022/07/22 00:08:38;;;;;;;8.00;7.23;;;20.90;99.90;;;21.09;75.85;101140.72;5014192;28;20433;-72
2022/07/22 00:11:07;;;;;;;8.07;7.37;;;20.90;99.90;;;21.19;75.37;101143.56;5043223;28;20501;-72
2022/07/22 00:13:36;;;;;;;9.20;8.00;;;21.00;99.90;;;21.12;75.23;101142.94;5017715;28;20460;-73
2022/07/22 00:16:06;;;;;;;8.87;7.90;;;21.00;99.90;;;21.20;75.07;101142.44;5029409;28;20889;-73
2022/07/22 00:18:37;;;;;;;9.50;8.13;;;21.00;99.90;;;21.12;75.58;101148.44;5035380;28;20470;-73
2022/07/22 00:21:06;;;;;;;9.13;8.10;;;20.90;99.90;;;21.17;75.39;101145.75;5039441;28;20450;-73
2022/07/22 00:23:39;;;;;;;8.63;7.77;;;20.90;99.90;;;21.16;74.74;101146.84;5040637;28;20448;-74
2022/07/22 00:26:08;;;;;;;8.93;7.33;;;21.00;99.90;;;21.14;74.64;101149.03;5040082;28;20511;-74
2022/07/22 00:28:37;;;;;;;7.70;7.00;;;20.90;99.90;;;21.18;74.66;101152.09;5038084;28;20432;-73
2022/07/22 00:31:07;;;;;;;8.50;7.30;;;21.00;99.90;;;21.36;73.26;101150.78;5039067;28;20410;-72
2022/07/22 00:33:37;;;;;;;7.83;7.10;;;21.00;99.90;;;21.36;72.53;101148.88;5035976;28;20460;-73
2022/07/22 00:36:07;;;;;;;7.47;6.70;;;21.10;99.90;;;21.27;72.91;101152.41;5032126;28;20464;-73
2022/07/22 00:38:36;;;;;;;9.70;7.30;;;21.10;99.90;;;21.32;72.57;101157.94;5036996;28;20564;-73
2022/07/22 00:41:05;;;;;;;8.70;7.30;;;21.10;99.90;;;21.39;71.46;101156.63;5034668;28;20491;-73
2022/07/22 00:43:54;;;;;;;7.20;6.33;;;21.10;99.90;;;21.36;71.42;101159.88;5026617;28;20534;-73
2022/07/22 00:46:26;;;;;;;6.17;5.57;;;21.10;99.90;;;21.32;71.23;101163.44;5016422;28;20444;-73
2022/07/22 00:48:57;;;;;;;8.03;6.40;;;21.10;99.90;;;21.28;71.07;101159.56;5039526;28;20431;-73
2022/07/22 00:51:29;;;;;;;7.60;6.60;;;21.10;99.90;;;21.32;70.80;101168.94;5031541;28;20437;-72
2022/07/22 00:54:00;;;;;;;7.23;6.53;;;21.10;99.90;;;21.22;71.35;101165.03;5034394;28;20488;-72
2022/07/22 00:56:31;;;;;;;10.87;6.23;;;21.00;99.90;;;21.18;71.07;101163.94;5034494;28;20469;-73
2022/07/22 00:59:07;;;;;;;7.60;6.90;;;21.00;99.90;;;21.31;70.66;101161.78;5014272;28;20442;-73
2022/07/22 01:01:36;;;;;;;8.30;6.10;;;21.00;99.90;;;21.16;70.93;101160.59;5031694;28;20490;-72
2022/07/22 01:04:07;;;;;;;7.23;6.50;;;20.90;99.90;;;21.14;71.47;101167.47;5035043;28;20862;-72
2022/07/22 01:06:36;;;;;;;6.00;5.47;;;20.90;99.90;;;21.04;71.41;101168.22;5016102;28;20448;-73
2022/07/22 01:09:05;;;;;;;6.80;6.10;;;20.80;99.90;;;21.03;71.85;101163.78;5023752;28;20445;-73
2022/07/22 01:11:34;;;;;;;9.13;6.43;;;20.80;99.90;;;21.10;71.50;101167.16;5035758;28;20398;-73
2022/07/22 01:14:03;;;;;;;5.97;5.37;;;20.80;99.90;;;21.09;71.15;101159.16;5043664;28;20513;-73
2022/07/22 01:16:33;;;;;;;7.13;5.60;;;20.90;99.90;;;21.06;70.99;101168.75;5021098;28;20419;-73
2022/07/22 01:19:02;;;;;;;6.17;5.57;;;20.90;99.90;;;20.96;71.27;101154.91;5032961;28;20424;-73
2022/07/22 01:21:32;;;;;;;7.00;6.30;;;20.80;99.90;;;20.78;72.38;101163.59;5037349;28;20438;-73
2022/07/22 01:24:01;;;;;;;5.90;5.30;;;20.60;99.90;;;20.78;72.21;101163.59;5018256;28;20993;-73
2022/07/22 01:26:30;;;;;;;7.60;5.40;;;20.60;99.90;;;20.89;71.96;101164.50;5032090;28;20414;-73
2022/07/22 01:28:59;;;;;;;6.77;5.70;;;20.60;99.90;;;20.80;72.01;101162.25;5013824;28;20456;-73
2022/07/22 01:31:29;;;;;;;4.57;4.17;;;20.60;99.90;;;20.78;72.29;101161.69;5015343;28;20437;-73
2022/07/22 01:33:59;;;;;;;5.53;4.80;;;20.60;99.90;;;20.78;72.47;101161.69;5013876;28;20978;-74
2022/07/22 01:36:28;;;;;;;5.20;4.70;;;20.60;99.90;;;20.68;72.64;101153.34;5027324;28;20874;-73
2022/07/22 01:38:58;;;;;;;6.10;5.50;;;20.50;99.90;;;20.69;72.95;101156.94;5017554;28;20415;-72
2022/07/22 01:41:28;;;;;;;7.27;6.17;;;20.50;99.90;;;20.71;72.63;101157.50;5036652;28;20471;-72
2022/07/22 01:43:57;;;;;;;6.50;5.30;;;20.50;99.90;;;20.77;72.75;101161.94;5032349;28;20455;-72
2022/07/22 01:46:26;;;;;;;5.90;5.10;;;20.50;99.90;;;20.61;73.05;101160.16;5019200;28;20449;-73
2022/07/22 01:48:55;;;;;;;6.43;4.77;;;20.50;99.90;;;20.52;73.22;101164.50;5009563;28;20445;-73
2022/07/22 01:51:29;;;;;;;4.67;4.27;;;20.40;99.90;;;20.42;73.98;101159.72;5019727;28;20414;-73
2022/07/22 01:54:00;;;;;;;5.70;4.57;;;20.30;99.90;;;20.40;74.02;101156.41;5012151;28;20467;-72
2022/07/22 01:56:29;;;;;;;6.33;5.30;;;20.20;99.90;;;20.33;74.53;101156.59;5006713;28;20436;-72
2022/07/22 01:58:59;;;;;;;5.90;5.27;;;20.20;99.90;;;20.37;74.18;101165.19;5032318;28;20443;-73
2022/07/22 02:01:30;;;;;;;7.90;5.30;;;20.20;99.90;;;20.42;74.09;101164.41;5009619;28;20556;-73
2022/07/22 02:03:59;;;;;;;6.27;5.43;;;20.20;99.90;;;20.32;74.75;101165.97;5030486;28;20472;-73
2022/07/22 02:06:29;;;;;;;6.37;5.70;;;20.20;99.90;;;20.32;74.73;101160.47;5014004;28;20410;-72
2022/07/22 02:09:00;;;;;;;5.10;4.60;;;20.10;99.90;;;20.32;74.73;101156.88;5038504;28;20477;-73
2022/07/22 02:11:37;;;;;;;6.10;4.90;;;20.10;99.90;;;20.24;75.41;101160.06;5014061;28;20786;-74
2022/07/22 02:14:07;;;;;;;5.60;5.10;;;20.10;99.90;;;20.18;75.78;101169.34;5012427;28;20550;-74
2022/07/22 02:16:36;;;;;;;5.27;4.80;;;20.00;99.90;;;20.20;75.59;101173.50;5012917;28;20865;-73
2022/07/22 02:19:07;;;;;;;6.07;5.47;;;19.90;99.90;;;20.16;75.80;101175.09;5036335;28;20410;-73
2022/07/22 02:21:36;;;;;;;6.60;5.30;;;20.00;99.90;;;20.13;76.00;101178.38;5035800;28;21020;-73
2022/07/22 02:24:07;;;;;;;5.67;5.03;;;20.00;99.90;;;20.06;76.45;101179.66;5030758;28;20464;-73
2022/07/22 02:26:36;;;;;;;5.93;5.33;;;19.90;99.90;;;20.08;76.51;101175.56;5029299;28;20788;-73
2022/07/22 02:29:05;;;;;;;6.23;5.43;;;19.80;99.90;;;20.02;76.62;101173.84;5019778;28;20439;-73
2022/07/22 02:31:34;;;;;;;6.63;5.93;;;19.90;99.90;;;20.03;76.56;101180.19;5036863;28;20439;-73
2022/07/22 02:34:07;;;;;;;5.63;5.13;;;19.80;99.90;;;20.10;76.48;101178.03;5031370;28;20434;-73
2022/07/22 02:36:38;;;;;;;7.03;6.33;;;19.90;99.90;;;19.99;76.76;101173.53;5014338;28;20414;-72
2022/07/22 02:39:08;;;;;;;6.90;6.20;;;19.80;99.90;;;19.97;77.13;101173.78;5024378;28;21033;-73
2022/07/22 02:41:38;;;;;;;6.40;5.37;;;19.80;99.90;;;19.85;77.94;101170.34;5019293;28;20502;-72
2022/07/22 02:44:07;;;;;;;6.20;5.60;;;19.70;99.90;;;19.89;77.65;101174.25;5016102;28;20443;-72
2022/07/22 02:46:37;;;;;;;5.10;4.67;;;19.70;99.90;;;19.85;78.02;101178.56;5034392;28;20446;-73
2022/07/22 02:49:14;;;;;;;7.20;6.03;;;19.70;99.90;;;19.77;78.63;101184.53;5012621;28;20438;-73
2022/07/22 02:51:44;;;;;;;7.73;6.03;;;19.60;99.90;;;19.69;78.85;101182.25;5018071;28;20844;-73
2022/07/22 02:54:15;;;;;;;6.80;5.53;;;19.60;99.90;;;19.72;78.61;101176.22;5018765;28;20716;-73
2022/07/22 02:56:44;;;;;;;6.37;5.70;;;19.50;99.90;;;19.61;79.15;101185.41;5022477;28;20447;-73
2022/07/22 02:59:13;;;;;;;7.70;5.57;;;19.50;99.90;;;19.70;79.20;101178.41;5037386;28;21877;-72
2022/07/22 03:01:42;;;;;;;8.00;5.77;;;19.50;99.90;;;19.69;79.25;101182.25;5028575;28;20467;-72
2022/07/22 03:04:11;;;;;;;6.73;5.37;;;19.50;99.90;;;19.62;79.31;101182.44;5019104;28;20434;-73
2022/07/22 03:06:41;;;;;;;5.90;5.40;;;19.50;99.90;;;19.63;79.69;101177.78;5040711;28;20491;-73
2022/07/22 03:09:16;;;;;;;8.20;7.40;;;19.50;99.90;;;19.65;79.55;101181.94;5032135;28;20918;-73
2022/07/22 03:11:48;;;;;;;7.67;6.40;;;19.50;99.90;;;19.58;79.68;101181.28;5013687;28;20430;-73
2022/07/22 03:14:18;;;;;;;8.13;6.80;;;19.40;99.90;;;19.55;79.91;101180.97;5013073;28;20448;-72
2022/07/22 03:16:47;;;;;;;8.87;7.40;;;19.40;99.90;;;19.47;80.15;101180.31;5016809;28;20494;-73
2022/07/22 03:19:17;;;;;;;8.13;7.00;;;19.30;99.90;;;19.41;80.56;101185.97;5019507;28;20436;-72
2022/07/22 03:21:50;;;;;;;9.80;6.67;;;19.30;99.90;;;19.30;81.19;101186.91;5019587;28;20565;-73
2022/07/22 03:24:20;;;;;;;8.83;7.00;;;19.20;99.90;;;19.26;81.50;101177.53;5014912;28;20439;-72
2022/07/22 03:26:49;;;;;;;7.97;6.80;;;19.20;99.90;;;19.29;81.42;101186.06;5021309;28;20484;-72
2022/07/22 03:29:18;;;;;;;10.33;7.53;;;19.20;99.90;;;19.23;81.63;101181.59;5010297;28;20822;-72
2022/07/22 03:31:48;;;;;;;11.70;7.30;;;19.10;99.90;;;19.18;82.08;101181.50;5029054;28;20810;-72
2022/07/22 03:34:24;;;;;;;8.70;7.80;;;19.10;99.90;;;19.24;81.87;101185.16;5021448;28;20923;-72
2022/07/22 03:37:00;;;;;;;8.00;6.90;;;19.10;99.90;;;19.25;81.82;101186.81;5016090;28;20424;-72
2022/07/22 03:39:31;;;;;;;7.60;6.90;;;19.10;99.90;;;19.25;81.84;101193.16;5024820;28;20413;-74
2022/07/22 03:42:01;;;;;;;7.83;6.87;;;19.10;99.90;;;19.39;81.66;101188.97;5016678;28;20889;-74
2022/07/22 03:44:31;;;;;;;9.17;6.90;;;19.10;99.90;;;19.46;80.84;101189.63;5040359;28;20429;-73
2022/07/22 03:47:00;;;;;;;8.97;7.50;;;19.20;99.90;;;19.33;81.38;101195.44;5033021;28;20427;-73
2022/07/22 03:49:31;;;;;;;8.60;7.60;;;19.20;99.90;;;19.39;80.90;101197.19;5034734;28;20497;-74
2022/07/22 03:52:01;;;;;;;8.90;7.37;;;19.20;99.90;;;19.48;80.86;101198.44;5014472;28;20850;-72
2022/07/22 03:54:32;;;;;;;10.27;8.27;;;19.20;99.90;;;19.58;80.34;101202.41;5029976;28;20464;-73
2022/07/22 03:57:02;;;;;;;8.17;7.27;;;19.30;99.90;;;19.60;80.19;101200.25;5022860;28;20480;-72
2022/07/22 03:59:31;;;;;;;9.33;8.20;;;19.30;99.90;;;19.72;79.66;101200.94;5017152;28;20440;-72
2022/07/22 04:02:01;;;;;;;8.30;7.00;;;19.40;99.90;;;19.83;78.95;101194.50;5015663;28;20446;-73
2022/07/22 04:04:31;;;;;;;10.10;8.13;;;19.50;99.90;;;19.83;78.31;101189.00;5031793;28;20452;-72
2022/07/22 04:07:00;;;;;;;9.47;7.57;;;19.50;99.90;;;19.74;78.79;101196.03;5015099;28;20443;-73
2022/07/22 04:09:37;;;;;;;9.93;8.33;;;19.50;99.90;;;19.73;79.03;101206.19;5014617;28;20415;-73
2022/07/22 04:12:07;;;;;;;9.93;8.40;;;19.50;99.90;;;19.80;79.06;101203.25;5016490;28;20413;-73
2022/07/22 04:14:46;;;;;;;12.40;7.60;;;19.50;99.90;;;19.87;78.45;101201.13;5015593;28;20762;-73
2022/07/22 04:17:15;;;;;;;8.77;7.40;;;19.50;99.90;;;20.10;77.71;101211.84;5034429;22;21652;-72
2022/07/22 04:19:46;;;;;;;12.63;8.80;;;19.70;99.90;;;20.11;77.78;101208.00;5030163;28;20866;-72
2022/07/22 04:22:23;;;;;;;10.60;9.50;;;19.80;99.90;;;20.25;76.62;101203.78;5015081;28;20546;-72
2022/07/22 04:24:57;;;;;;;9.03;8.00;;;19.90;99.90;;;20.17;76.86;101201.50;5031705;28;20506;-72
2022/07/22 04:27:26;;;;;;;10.63;8.40;;;19.80;99.90;;;20.17;77.23;101204.25;5039844;28;20435;-72
2022/07/22 04:29:55;;;;;;;11.50;8.70;;;19.90;99.90;;;20.12;77.21;101206.94;5040061;22;20496;-72
2022/07/22 04:32:24;;;;;;;10.80;9.70;;;19.80;99.90;;;20.04;77.14;101204.66;5029489;28;20869;-73
2022/07/22 04:34:53;;;;;;;10.63;8.17;;;19.80;99.90;;;20.16;77.14;101208.06;5030400;28;20863;-72
2022/07/22 04:37:22;;;;;;;13.00;10.23;;;19.90;99.90;;;20.21;76.90;101205.38;5031838;28;20424;-74
2022/07/22 04:39:52;;;;;;;11.07;7.80;;;19.90;99.90;;;20.26;76.50;101210.94;5009836;28;20441;-73
2022/07/22 04:42:22;;;;;;;13.47;10.63;;;20.00;99.90;;;20.22;76.16;101207.03;5031622;28;20460;-73
2022/07/22 04:44:52;;;;;;;8.80;7.90;;;20.00;99.90;;;20.22;76.82;101215.28;5016102;28;20510;-73
2022/07/22 04:47:21;;;;;;;11.77;10.57;;;19.90;99.90;;;20.19;76.05;101215.78;5031489;28;20966;-73
2022/07/22 04:49:50;;;;;;;12.77;9.27;;;19.90;99.90;;;20.21;76.74;101219.13;5033400;28;20458;-74
2022/07/22 04:52:19;;;;;;;10.53;9.43;;;19.90;99.90;;;20.31;75.65;101213.78;5007418;28;20442;-74
2022/07/22 04:54:49;;;;;;;12.97;10.20;;;20.00;99.90;;;20.29;76.13;101226.06;5013301;28;20740;-74
2022/07/22 04:57:19;;;;;;;10.93;9.83;;;19.90;99.90;;;20.32;75.75;101226.44;5029390;28;20470;-73
2022/07/22 04:59:49;;;;;;;12.00;10.20;;;20.00;99.90;;;20.30;75.64;101223.09;5012038;28;20475;-74
2022/07/22 05:02:18;;;;;;;11.60;9.30;;;20.00;99.90;;;20.53;74.87;101226.63;5032569;28;20468;-74
2022/07/22 05:04:47;;;;;;;12.90;10.70;;;20.10;99.90;;;20.45;75.01;101229.84;5034739;28;20431;-74
2022/07/22 05:07:16;;;;;;;13.37;10.07;;;20.10;99.90;;;20.54;74.23;101220.03;5011646;28;20410;-74
2022/07/22 05:09:45;;;;;;;13.33;11.17;;;20.10;99.90;;;20.45;74.67;101221.59;5022975;28;20482;-74
2022/07/22 05:12:16;;;;;;;13.50;10.80;;;20.10;99.90;;;20.49;74.32;101226.31;5016499;28;20442;-74
2022/07/22 05:14:45;;;;;;;10.90;9.50;;;20.20;99.90;;;20.55;74.00;101229.94;5020943;28;20440;-74
2022/07/22 05:17:15;;;;;;;10.70;8.90;;;20.20;99.90;;;20.74;73.49;101223.81;5038568;28;20819;-74
2022/07/22 05:20:09;;;;;;;11.07;9.97;;;20.30;99.90;;;20.60;73.97;101221.75;5029487;28;20438;-73
2022/07/22 05:22:38;;;;;;;12.63;9.70;;;20.30;99.90;;;20.63;74.16;101222.03;5038287;28;20851;-73
2022/07/22 05:25:13;;;;;;;12.87;10.67;;;20.20;99.90;;;20.51;73.77;101229.66;5015584;28;20534;-73
2022/07/22 05:27:52;;;;;;;9.77;8.77;;;20.20;99.90;;;20.51;74.01;101228.81;5029788;28;20461;-74
2022/07/22 05:30:26;;;;;;;15.77;9.40;;;20.20;99.90;;;20.71;73.59;101220.75;5009543;28;20479;-74
2022/07/22 05:32:57;;;;;;;14.33;11.30;;;20.30;99.90;;;20.94;72.75;101231.41;5011624;28;20433;-72
2022/07/22 05:35:45;;;;;;;11.00;9.77;;;20.40;99.90;;;21.05;71.84;101230.41;5029413;28;20492;-72
2022/07/22 05:38:15;;;;;;;11.80;9.07;;;20.50;99.90;;;21.11;71.51;101229.31;5014961;28;20447;-73
2022/07/22 05:40:45;;;;;;;13.63;12.20;;;20.60;99.90;;;21.12;71.32;101233.75;5012073;28;20441;-74
2022/07/22 05:43:16;;;;;;;11.67;10.50;;;20.70;99.90;;;21.09;71.61;101234.28;5035608;28;20446;-73
2022/07/22 05:45:45;;;;;;;12.93;11.53;;;20.70;99.90;;;21.12;71.15;101231.00;5012179;28;20915;-74
2022/07/22 05:48:15;;;;;;;12.90;10.53;;;20.80;99.90;;;21.35;70.47;101235.31;5029987;28;20433;-73
2022/07/22 05:50:44;;;;;;;11.50;9.10;;;20.90;99.90;;;21.45;70.05;101237.28;5027811;28;20555;-73
2022/07/22 05:53:13;;;;;;;11.63;10.27;;;20.90;99.90;;;21.54;69.64;101239.28;5029640;28;20843;-73
2022/07/22 05:55:43;;;;;;;10.53;9.23;;;20.90;99.90;;;21.55;69.62;101240.09;5030414;28;20486;-73
2022/07/22 05:58:12;;;;;;;12.40;9.70;;;21.00;99.90;;;21.90;68.42;101237.53;5013714;28;20455;-73
2022/07/22 06:00:42;;;;;;;11.33;9.43;;;21.20;99.90;;;21.95;67.90;101240.34;5008433;28;20440;-74
2022/07/22 06:03:11;;;;;;;12.10;10.23;;;21.40;99.90;;;22.01;67.25;101238.44;5029184;28;20465;-73
2022/07/22 06:05:48;;;;;;;13.07;10.00;;;21.50;99.90;;;22.52;66.31;101236.66;5028717;28;20440;-71
2022/07/22 06:08:18;;;;;;;13.27;11.87;;;21.70;99.90;;;22.79;64.70;101248.31;5013262;28;20414;-74
2022/07/22 06:10:52;;;;;;;11.03;9.93;;;22.00;99.90;;;22.89;64.60;101240.06;5027712;28;20430;-72
2022/07/22 06:13:22;;;;;;;10.70;9.70;;;22.10;99.90;;;22.54;65.43;101243.56;5013636;28;20472;-74
2022/07/22 06:15:51;;;;;;;11.33;10.23;;;22.10;99.90;;;22.47;65.59;101242.16;5013999;28;20450;-74
2022/07/22 06:18:21;;;;;;;13.30;9.70;;;22.00;99.90;;;22.58;65.68;101240.25;5012494;28;20490;-74
2022/07/22 06:20:53;;;;;;;9.83;8.83;;;22.00;99.90;;;22.60;65.79;101246.34;5014188;28;20451;-73
2022/07/22 06:23:24;;;;;;;9.80;8.83;;;22.00;99.90;;;22.73;65.12;101243.91;5014022;28;20466;-72
2022/07/22 06:25:53;;;;;;;8.70;8.00;;;22.10;99.90;;;22.48;65.17;101238.31;5024838;28;20455;-72
2022/07/22 06:28:30;;;;;;;10.67;9.40;;;22.00;99.90;;;22.47;65.25;101242.16;5008392;28;20443;-74
2022/07/22 06:30:59;;;;;;;10.93;9.57;;;22.00;99.90;;;22.50;65.43;101247.16;5012124;28;20513;-74
2022/07/22 06:33:33;;;;;;;10.50;9.50;;;22.00;99.90;;;22.70;64.95;101233.44;5008829;28;20507;-73
2022/07/22 06:36:04;;;;;;;11.47;10.27;;;22.10;99.90;;;23.00;64.04;101237.25;5010684;28;20422;-73
2022/07/22 06:38:33;;;;;;;11.87;10.70;;;22.40;99.90;;;22.88;64.09;101238.38;5009060;28;20781;-74
2022/07/22 06:41:29;;;;;;;12.50;11.30;;;22.30;99.80;;;23.15;63.41;101242.78;5029985;28;20439;-72
2022/07/22 06:44:22;;;;;;;12.00;10.83;;;22.50;99.30;;;22.50;65.05;101244.38;5023755;28;20535;-73
2022/07/22 06:47:04;;;;;;;11.60;10.43;;;22.20;99.10;;;22.46;65.48;101240.53;5020555;28;20457;-74
2022/07/22 06:49:34;;;;;;;10.10;8.70;;;22.10;99.90;;;22.67;65.12;101247.72;5019073;28;20463;-71
2022/07/22 06:52:05;;;;;;;12.20;11.00;;;22.10;99.90;;;22.85;64.45;101249.97;5006761;28;20436;-72
2022/07/22 06:54:34;;;;;;;13.87;10.37;;;22.30;99.90;;;22.81;64.13;101243.34;5009630;28;20851;-74
2022/07/22 06:57:04;;;;;;;11.13;10.10;;;22.20;99.70;;;22.75;64.02;101244.44;5013383;28;20454;-73
2022/07/22 06:59:35;;;;;;;12.43;11.20;;;22.30;98.20;;;23.12;62.90;101243.34;5013557;28;20611;-74
2022/07/22 07:02:09;;;;;;;11.97;10.67;;;22.40;97.70;;;23.18;62.82;101245.84;5012122;28;20414;-74
2022/07/22 07:04:39;;;;;;;11.20;10.20;;;22.50;97.80;;;23.59;62.24;101243.84;5011797;28;21030;-73
2022/07/22 07:07:10;;;;;;;12.47;11.10;;;22.70;97.00;;;23.78;61.17;101244.91;5005440;28;20869;-73
2022/07/22 07:09:58;;;;;;;11.67;10.47;;;23.00;94.00;;;23.61;61.28;101247.19;5010278;28;20472;-72
2022/07/22 07:12:47;;;;;;;12.60;11.50;;;22.90;91.90;;;22.87;63.76;101247.78;5008943;28;20452;-72
2022/07/22 07:15:23;;;;;;;11.70;10.50;;;22.70;93.30;;;23.22;62.60;101252.47;5007253;28;20448;-74
2022/07/22 07:18:01;;;;;;;11.37;10.37;;;22.70;94.70;;;23.26;62.79;101249.97;5014595;28;20800;-70
2022/07/22 07:20:31;;;;;;;10.10;9.10;;;22.70;95.20;;;23.63;61.83;101246.88;5030534;28;21005;-73
2022/07/22 07:23:04;;;;;;;11.63;10.63;;;22.90;95.00;;;23.70;61.72;101251.00;5012531;28;20826;-74
2022/07/22 07:25:42;;;;;;;12.20;11.10;;;23.00;93.50;;;24.16;60.49;101242.53;5013140;28;20458;-72
2022/07/22 07:28:11;;;;;;;12.00;10.00;;;23.20;93.00;;;24.32;59.93;101241.38;5008927;28;20429;-74
2022/07/22 07:31:06;;;;;;;10.77;9.50;;;23.50;90.30;;;24.23;59.65;101243.09;4985568;28;20816;-73
2022/07/22 07:33:35;;;;;;;9.50;8.70;;;23.60;82.70;;;24.37;59.77;101237.75;5016286;28;20432;-74
2022/07/22 07:36:06;;;;;;;10.30;9.30;;;23.50;86.00;;;24.76;58.98;101235.00;5023108;28;20463;-74
2022/07/22 07:38:44;;;;;;;10.70;9.30;;;23.90;83.50;;;24.82;58.04;101237.44;5011271;28;20523;-72
2022/07/22 07:41:17;;;;;;;11.57;10.47;;;24.10;74.50;;;24.82;58.02;101231.06;5016665;28;20839;-74
2022/07/22 07:43:49;;;;;;;9.83;8.80;;;24.10;71.10;;;25.29;57.05;101239.53;5016487;28;20491;-73
2022/07/22 07:46:19;;;;;;;9.70;8.40;;;24.50;68.40;;;25.61;56.00;101240.94;5017016;28;20414;-74
2022/07/22 07:48:49;;;;;;;10.23;9.17;;;24.80;63.20;;;25.19;56.71;101234.09;5009019;28;20443;-74
2022/07/22 07:51:18;;;;;;;9.37;8.50;;;24.40;59.60;;;25.09;57.50;101242.50;5022784;28;20458;-75
2022/07/22 07:53:48;;;;;;;10.10;9.10;;;24.30;63.20;;;24.25;58.79;101238.91;5034351;28;20409;-73
2022/07/22 07:56:18;;;;;;;12.10;8.40;;;23.90;61.40;;;24.35;59.04;101234.47;5010932;28;20410;-74
2022/07/22 07:58:47;;;;;;;9.27;8.27;;;23.90;67.20;;;24.79;58.00;101234.41;5016179;28;20418;-74
2022/07/22 08:01:36;;;;;;;8.20;7.40;;;24.20;64.20;;;25.38;56.91;101246.09;5030909;28;20439;-74
2022/07/22 08:04:25;;;;;;;7.47;6.77;;;24.60;62.10;;;25.44;55.84;101242.16;5028126;28;20987;-73
2022/07/22 08:07:15;;;;;;;8.00;7.20;;;24.70;56.10;;;25.68;54.86;101235.84;5016341;28;20828;-74
2022/07/22 08:09:48;;;;;;;7.40;6.70;;;25.00;50.90;;;26.01;54.23;101234.88;5029578;28;20874;-74
2022/07/22 08:12:43;;;;;;;8.33;6.30;;;25.20;49.30;;;26.16;53.98;101231.91;5029043;28;20411;-74
2022/07/22 08:15:28;;;;;;;7.63;6.17;;;25.30;47.20;;;26.65;52.89;101244.53;5009742;28;20864;-73
2022/07/22 08:17:59;;;;;;;7.70;6.60;;;25.80;44.50;;;25.93;53.79;101236.38;5030923;28;20417;-72
2022/07/22 08:20:31;;;;;;;6.10;5.60;;;25.50;41.50;;;26.01;53.15;101245.13;5008425;28;20517;-73
2022/07/22 08:23:00;;;;;;;5.90;5.40;;;25.40;39.70;;;25.64;53.11;101241.16;5009641;28;20406;-73
2022/07/22 08:25:33;;;;;;;6.63;6.00;;;25.10;38.30;;;26.28;52.50;101235.09;5014076;28;20536;-73
2022/07/22 08:28:02;;;;;;;6.00;5.40;;;25.50;40.50;;;26.83;51.32;101238.13;5016135;28;20452;-75
2022/07/22 08:30:31;;;;;;;7.43;5.43;;;25.80;36.70;;;26.91;50.90;101247.78;5026707;28;20835;-74
2022/07/22 08:33:00;;;;;;;6.53;5.80;;;26.20;33.50;;;26.16;51.49;101243.00;5030156;28;20420;-74
2022/07/22 08:35:29;;;;;;;6.10;5.50;;;25.80;30.70;;;25.25;53.52;101232.94;5009794;28;20422;-75
2022/07/22 08:37:59;;;;;;;7.03;5.47;;;25.30;32.30;;;24.83;54.98;101249.34;5032266;28;20527;-72
2022/07/22 08:40:28;;;;;;;6.20;5.60;;;24.80;35.40;;;24.52;56.34;101245.97;5015951;28;20497;-72
2022/07/22 08:43:02;;;;;;;6.87;6.20;;;24.30;38.70;;;24.45;56.45;101250.97;5009852;28;20440;-75
2022/07/22 08:45:33;;;;;;;6.53;5.93;;;24.20;41.40;;;24.40;56.82;101246.28;5009795;28;20506;-74
2022/07/22 08:48:05;;;;;;;8.30;5.73;;;24.00;43.30;;;24.34;57.39;101257.69;5025725;28;20462;-73
2022/07/22 08:50:41;;;;;;;8.40;6.40;;;23.90;45.70;;;24.26;57.68;101253.56;5040927;28;20481;-73
2022/07/22 08:53:21;;;;;;;6.70;6.00;;;23.90;47.10;;;24.22;57.95;101253.31;5013379;28;20436;-73
2022/07/22 08:55:52;;;;;;;8.63;5.87;;;23.90;48.60;;;24.09;58.32;101253.91;5011293;28;20488;-74
2022/07/22 08:58:23;;;;;;;9.07;6.30;;;23.80;49.50;;;24.46;57.88;101264.53;5030519;28;20463;-74
2022/07/22 09:01:09;;;;;;;6.93;6.23;;;24.00;50.90;;;24.88;56.92;101257.63;5016395;28;20555;-72
2022/07/22 09:03:49;;;;;;;6.50;5.90;;;24.20;50.50;;;25.38;55.82;101257.19;5012008;28;20426;-74
2022/07/22 09:06:21;;;;;;;7.63;6.03;;;24.60;49.80;;;25.18;55.21;101248.22;5017150;28;20500;-73
2022/07/22 09:08:56;;;;;;;5.70;4.90;;;24.60;44.80;;;25.22;55.64;101258.47;5033559;28;20410;-74
2022/07/22 09:11:43;;;;;;;5.27;4.87;;;24.50;45.90;;;25.01;55.79;101259.75;5030478;28;20431;-73
2022/07/22 09:14:46;;;;;;;7.67;4.90;;;24.60;44.60;;;24.25;57.99;101261.03;5033263;28;20428;-73
2022/07/22 09:17:36;;;;;;;5.37;4.87;;;24.20;46.60;;;23.59;60.23;101260.44;5031645;28;20520;-73
2022/07/22 09:20:25;;;;;;;8.10;5.67;;;23.60;51.70;;;23.46;61.06;101269.31;5033450;28;20590;-74
2022/07/22 09:23:17;;;;;;;5.43;4.60;;;23.30;58.20;;;23.28;61.81;101264.34;5033158;28;20942;-74
2022/07/22 09:25:47;;;;;;;6.67;6.07;;;23.00;67.10;;;23.08;62.01;101269.84;5015348;28;20450;-73
2022/07/22 09:28:38;;;;;;;6.70;6.10;;;23.00;69.00;;;23.02;62.64;101270.94;5032497;28;20411;-75
2022/07/22 09:31:51;;;;;;;7.57;6.87;;;22.80;76.20;;;22.83;63.54;101273.44;4971119;28;20991;-75
2022/07/22 09:34:44;;;;;;;7.27;6.67;;;22.60;86.00;;;23.15;62.75;101275.91;5026048;28;20443;-72
2022/07/22 09:37:20;;;;;;;7.50;6.80;;;22.80;87.80;;;23.50;62.05;101277.84;5007273;28;20418;-74
2022/07/22 09:39:49;;;;;;;6.93;6.33;;;23.00;87.00;;;24.15;59.78;101269.38;5014753;28;20465;-73
2022/07/22 09:42:19;;;;;;;7.70;6.20;;;23.40;80.70;;;24.56;58.29;101272.75;5013991;28;20463;-74
2022/07/22 09:44:49;;;;;;;5.43;4.93;;;23.90;68.50;;;24.65;57.30;101278.50;5014820;28;20547;-74
2022/07/22 09:47:32;;;;;;;6.10;5.50;;;24.10;59.90;;;24.62;57.85;101274.41;5015061;28;20443;-73
2022/07/22 09:50:33;;;;;;;5.63;5.13;;;24.10;59.20;;;25.40;55.92;101279.88;5002010;28;20441;-74
2022/07/22 09:53:19;;;;;;;6.13;5.60;;;24.60;55.00;;;25.64;55.01;101276.34;5031197;28;20455;-73
2022/07/22 09:56:04;;;;;;;5.03;4.63;;;24.80;50.70;;;25.63;54.98;101283.84;5014614;28;20436;-73
2022/07/22 09:58:34;;;;;;;6.17;5.57;;;24.90;48.10;;;25.95;53.59;101280.41;5009956;28;21005;-74
2022/07/22 10:01:10;;;;;;;4.00;3.70;;;25.20;45.30;;;25.38;54.17;101282.13;5004214;28;20525;-71
2022/07/22 10:03:44;;;;;;;3.93;3.60;;;24.90;41.40;;;25.36;54.56;101283.53;5024922;28;20472;-74
2022/07/22 10:06:14;;;;;;;3.60;3.27;;;24.80;42.30;;;25.23;54.93;101279.47;5012385;28;20450;-74
2022/07/22 10:08:44;;;;;;;4.20;3.80;;;24.70;42.20;;;25.18;54.92;101293.38;5014354;28;20480;-73
2022/07/22 10:11:14;;;;;;;3.80;3.37;;;24.70;42.50;;;24.82;56.10;101286.44;5014413;28;21016;-72
2022/07/22 10:13:46;;;;;;;4.40;3.97;;;24.50;43.50;;;24.38;57.62;101294.72;5025635;28;20444;-74
2022/07/22 10:16:16;;;;;;;3.03;2.70;;;24.20;46.20;;;23.80;58.88;101300.72;5014055;28;20638;-74
2022/07/22 10:18:48;;;;;;;2.63;2.40;;;23.80;48.90;;;23.72;59.54;101293.00;5011479;28;20421;-74
2022/07/22 10:21:34;;;;;;;3.00;2.70;;;23.50;53.20;;;23.96;59.64;101286.88;5012404;28;20433;-73
2022/07/22 10:24:14;;;;;;;3.67;3.10;;;23.60;56.80;;;24.56;57.52;101297.66;5009210;28;20462;-74
2022/07/22 10:26:51;;;;;;;3.07;2.73;;;23.90;54.30;;;24.79;56.68;101295.28;5026619;28;20817;-74
2022/07/22 10:29:32;;;;;;;3.50;2.67;;;24.30;51.20;;;25.00;56.65;101291.31;5008524;28;20441;-74
2022/07/22 10:32:27;;;;;;;3.70;3.30;;;24.40;50.20;;;25.08;55.59;101290.69;5068423;22;20555;-70
2022/07/22 10:35:26;;;;;;;2.70;2.33;;;24.60;46.70;;;25.16;55.82;101292.03;5050847;28;20414;-72